createdAt,value
2019-04-26T00:00:15.937Z,13.99
2019-04-26T00:01:07.529Z,13.96
2019-04-26T00:14:00.081Z,13.86
2019-04-26T00:14:50.020Z,13.87
2019-04-26T00:15:39.909Z,13.86
2019-04-26T00:16:37.658Z,13.86
2019-04-26T00:17:38.702Z,13.87
2019-04-26T00:18:34.491Z,13.86
2019-04-26T00:20:42.359Z,14.01
2019-04-26T00:21:34.083Z,13.98
2019-04-26T00:22:29.273Z,14.06
2019-04-26T00:23:20.895Z,13.96
2019-04-26T00:25:12.807Z,13.91
2019-04-26T00:26:02.909Z,13.96
2019-04-26T00:26:52.643Z,13.94
2019-04-26T00:27:43.318Z,13.87
2019-04-26T00:28:32.482Z,13.87
2019-04-26T00:29:26.231Z,13.88
2019-04-26T00:31:08.184Z,13.87
2019-04-26T00:34:38.183Z,13.9
2019-04-26T00:35:27.191Z,13.83
2019-04-26T00:36:18.677Z,13.84
2019-04-26T00:37:15.851Z,13.83
2019-04-26T00:37:59.744Z,13.76
2019-04-26T00:38:40.196Z,13.88
2019-04-26T00:39:20.600Z,13.88
2019-04-26T00:40:01.549Z,13.86
2019-04-26T00:40:41.942Z,13.9
2019-04-26T00:41:22.709Z,13.88
2019-04-26T00:42:03.030Z,13.83
2019-04-26T00:42:43.557Z,13.84
2019-04-26T00:43:23.915Z,13.75
2019-04-26T00:44:04.422Z,13.84
2019-04-26T00:44:44.900Z,13.8
2019-04-26T00:46:05.756Z,13.79
2019-04-26T00:46:46.948Z,13.72
2019-04-26T00:47:27.380Z,13.83
2019-04-26T00:48:07.828Z,13.9
2019-04-26T00:48:48.222Z,13.87
2019-04-26T00:49:28.659Z,13.72
2019-04-26T00:50:09.069Z,13.8
2019-04-26T00:50:49.503Z,13.86
2019-04-26T00:51:29.917Z,13.86
2019-04-26T00:52:10.410Z,13.9
2019-04-26T00:52:50.971Z,13.88
2019-04-26T00:53:31.343Z,13.9
2019-04-26T00:54:11.728Z,13.87
2019-04-26T00:54:52.141Z,13.88
2019-04-26T00:55:32.542Z,13.9
2019-04-26T00:56:14.498Z,13.87
2019-04-26T00:56:53.459Z,13.88
2019-04-26T00:57:33.876Z,13.93
2019-04-26T00:58:15.202Z,13.91
2019-04-26T00:58:55.971Z,13.96
2019-04-26T00:59:38.332Z,13.99
2019-04-26T01:00:19.582Z,14.08
2019-04-26T01:01:09.249Z,14.02
2019-04-26T01:01:51.380Z,14.11
2019-04-26T01:02:33.563Z,14.13
2019-04-26T01:04:41.919Z,14.11
2019-04-26T01:07:17.008Z,14.09
2019-04-26T01:08:07.418Z,14.12
2019-04-26T01:08:55.408Z,14.11
2019-04-26T01:09:45.600Z,14.09
2019-04-26T01:10:34.565Z,14.11
2019-04-26T01:11:26.202Z,14.12
2019-04-26T01:12:16.752Z,14.13
2019-04-26T01:13:06.950Z,14.11
2019-04-26T01:13:57.061Z,14.16
2019-04-26T01:14:51.536Z,14.11
2019-04-26T01:15:43.176Z,14.02
2019-04-26T01:25:17.497Z,13.87
2019-04-26T01:26:57.246Z,13.88
2019-04-26T01:27:46.587Z,13.84
2019-04-26T01:28:36.623Z,13.84
2019-04-26T01:29:29.154Z,13.84
2019-04-26T01:30:18.346Z,13.79
2019-04-26T01:31:06.802Z,13.72
2019-04-26T01:31:57.618Z,13.65
2019-04-26T01:33:05.904Z,13.59
2019-04-26T01:33:54.769Z,13.48
2019-04-26T01:38:37.887Z,13.44
2019-04-26T01:39:34.511Z,13.47
2019-04-26T01:40:33.136Z,13.48
2019-04-26T01:44:31.152Z,13.48
2019-04-26T01:59:56.444Z,13.61
2019-04-26T02:01:42.407Z,13.69
2019-04-26T02:16:23.606Z,13.51
2019-04-26T02:17:14.218Z,13.54
2019-04-26T02:19:24.662Z,13.46
2019-04-26T02:21:16.034Z,13.51
2019-04-26T02:22:04.118Z,13.48
2019-04-26T02:22:52.427Z,13.46
2019-04-26T02:23:44.109Z,13.48
2019-04-26T02:24:32.524Z,13.46
2019-04-26T02:25:22.475Z,13.48
2019-04-26T02:26:12.064Z,13.36
2019-04-26T02:27:06.153Z,13.31
2019-04-26T02:27:57.474Z,13.41
2019-04-26T02:30:09.199Z,13.38
2019-04-26T02:32:09.754Z,13.32
2019-04-26T02:35:34.063Z,13.36
2019-04-26T02:36:20.650Z,13.46
2019-04-26T02:37:10.665Z,13.43
2019-04-26T02:37:59.837Z,13.43
2019-04-26T02:38:49.526Z,13.48
2019-04-26T02:39:39.765Z,13.47
2019-04-26T02:40:31.155Z,13.44
2019-04-26T02:41:19.188Z,13.48
2019-04-26T02:42:08.562Z,13.61
2019-04-26T02:42:58.091Z,13.62
2019-04-26T02:43:47.477Z,13.53
2019-04-26T02:44:37.126Z,13.57
2019-04-26T02:45:28.825Z,13.62
2019-04-26T02:46:15.816Z,13.63
2019-04-26T02:47:06.245Z,13.59
2019-04-26T02:47:56.446Z,13.65
2019-04-26T02:48:47.448Z,13.68
2019-04-26T02:49:38.519Z,13.63
2019-04-26T02:50:30.537Z,13.61
2019-04-26T02:51:18.120Z,13.65
2019-04-26T02:52:08.940Z,13.59
2019-04-26T02:54:02.621Z,13.69
2019-04-26T02:54:56.694Z,13.61
2019-04-26T02:56:48.490Z,13.55
2019-04-26T02:57:38.692Z,13.53
2019-04-26T02:58:18.334Z,13.51
2019-04-26T02:58:58.782Z,13.61
2019-04-26T03:04:55.467Z,13.61
2019-04-26T03:08:08.472Z,13.48
2019-04-26T03:27:53.731Z,13.32
2019-04-26T03:46:31.488Z,12.89
2019-04-26T03:47:28.205Z,12.89
2019-04-26T03:49:06.345Z,12.89
2019-04-26T03:49:57.099Z,12.84
2019-04-26T03:50:48.257Z,12.84
2019-04-26T03:51:43.034Z,12.79
2019-04-26T03:52:35.273Z,12.81
2019-04-26T03:54:25.782Z,12.76
2019-04-26T03:57:14.033Z,13.07
2019-04-26T03:58:05.096Z,13.07
2019-04-26T03:58:59.110Z,13.1
2019-04-26T04:02:14.961Z,13.41
2019-04-26T04:03:09.114Z,13.36
2019-04-26T04:04:04.015Z,13.35
2019-04-26T04:04:58.987Z,13.39
2019-04-26T04:05:54.318Z,13.36
2019-04-26T04:09:37.988Z,13.53
2019-04-26T04:11:49.098Z,13.46
2019-04-26T04:15:38.741Z,13.46
2019-04-26T05:20:51.233Z,11.97
2019-04-26T05:21:55.072Z,12.11
2019-04-26T05:22:55.418Z,12.05
2019-04-26T05:23:57.834Z,11.97
2019-04-26T05:25:02.076Z,12.03
2019-04-26T05:25:58.591Z,12.05
2019-04-26T05:27:00.126Z,12.11
2019-04-26T05:28:06.387Z,12.15
2019-04-26T05:29:08.621Z,12.12
2019-04-26T05:30:08.356Z,12.21
2019-04-26T05:31:06.872Z,12.26
2019-04-26T05:32:11.354Z,12.37
2019-04-26T05:33:12.865Z,12.4
2019-04-26T05:34:18.263Z,12.49
2019-04-26T05:35:15.998Z,12.62
2019-04-26T05:36:16.618Z,12.54
2019-04-26T05:37:20.804Z,12.54
2019-04-26T05:38:24.319Z,12.59
2019-04-26T05:39:29.082Z,12.56
2019-04-26T05:40:30.795Z,12.63
2019-04-26T05:41:42.072Z,12.71
2019-04-26T05:42:58.589Z,12.84
2019-04-26T05:44:17.637Z,12.73
2019-04-26T05:47:36.026Z,12.85
2019-04-26T05:49:15.215Z,13.01
2019-04-26T05:50:13.741Z,12.96
2019-04-26T05:52:33.124Z,12.99
2019-04-26T05:55:59.332Z,13.16
2019-04-26T06:04:36.038Z,13.59
2019-04-26T06:05:33.748Z,13.65
2019-04-26T06:06:29.313Z,13.66
2019-04-26T06:07:27.519Z,13.75
2019-04-26T06:08:31.288Z,13.79
2019-04-26T06:09:23.541Z,13.76
2019-04-26T06:10:28.490Z,13.75
2019-04-26T06:11:30.952Z,13.88
2019-04-26T06:12:32.875Z,13.91
2019-04-26T06:13:28.701Z,13.98
2019-04-26T06:14:22.728Z,13.93
2019-04-26T06:15:20.299Z,13.91
2019-04-26T06:16:14.197Z,14.04
2019-04-26T06:17:11.430Z,13.96
2019-04-26T06:18:11.802Z,13.98
2019-04-26T06:19:05.532Z,14.17
2019-04-26T06:20:48.182Z,14.26
2019-04-26T06:21:42.174Z,14.16
2019-04-26T06:22:35.854Z,14.34
2019-04-26T06:23:34.069Z,14.38
2019-04-26T06:24:35.113Z,14.36
2019-04-26T06:25:33.468Z,14.38
2019-04-26T06:26:32.487Z,14.39
2019-04-26T06:27:34.296Z,14.44
2019-04-26T06:28:30.543Z,14.45
2019-04-26T06:29:28.634Z,14.42
2019-04-26T06:30:26.344Z,14.38
2019-04-26T06:31:22.449Z,14.41
2019-04-26T06:32:24.634Z,14.3
2019-04-26T06:33:26.855Z,14.31
2019-04-26T06:34:40.158Z,14.12
2019-04-26T06:35:33.852Z,14.13
2019-04-26T06:36:33.513Z,14.09
2019-04-26T06:37:29.513Z,14.19
2019-04-26T06:38:25.291Z,14.31
2019-04-26T06:39:22.454Z,14.23
2019-04-26T06:40:20.101Z,14.34
2019-04-26T06:41:15.767Z,14.34
2019-04-26T06:42:13.585Z,14.31
2019-04-26T06:45:43.574Z,14.23
2019-04-26T06:46:54.926Z,14.19
2019-04-26T06:48:41.352Z,14.21
2019-04-26T06:50:20.787Z,14.17
2019-04-26T06:52:34.122Z,14.13
2019-04-26T06:53:45.481Z,14.13
2019-04-26T06:54:57.975Z,14.09
2019-04-26T06:57:13.496Z,14.12
2019-04-26T06:59:20.897Z,14.23
2019-04-26T07:00:02.307Z,14.3
2019-04-26T07:00:43.200Z,14.35
2019-04-26T07:01:24.255Z,14.21
2019-04-26T07:02:06.085Z,14.27
2019-04-26T07:02:45.878Z,14.24
2019-04-26T07:03:26.746Z,14.21
2019-04-26T07:04:07.653Z,14.16
2019-04-26T07:04:49.114Z,14.27
2019-04-26T07:05:31.096Z,14.26
2019-04-26T07:06:12.088Z,14.21
2019-04-26T07:06:52.405Z,14.2
2019-04-26T07:07:33.552Z,14.2
2019-04-26T07:08:15.195Z,14.19
2019-04-26T07:08:57.991Z,14.16
2019-04-26T07:09:37.954Z,14.13
2019-04-26T07:10:19.205Z,14.08
2019-04-26T07:11:00.645Z,14.09
2019-04-26T07:11:41.938Z,14.11
2019-04-26T07:12:31.383Z,14.08
2019-04-26T07:13:14.549Z,13.98
2019-04-26T07:13:52.570Z,14.01
2019-04-26T07:14:32.948Z,13.96
2019-04-26T07:15:13.363Z,13.94
2019-04-26T07:16:01.725Z,13.99
2019-04-26T07:16:42.098Z,13.87
2019-04-26T07:17:23.019Z,13.9
2019-04-26T07:18:04.364Z,13.96
2019-04-26T07:18:43.822Z,13.87
2019-04-26T07:19:24.192Z,13.91
2019-04-26T07:20:06.038Z,13.9
2019-04-26T07:20:45.430Z,13.91
2019-04-26T07:21:37.530Z,13.98
2019-04-26T07:22:21.353Z,13.98
2019-04-26T07:24:28.426Z,14.05
2019-04-26T07:25:41.252Z,14.09
2019-04-26T07:26:48.065Z,14.29
2019-04-26T07:27:48.600Z,14.38
2019-04-26T07:28:43.875Z,14.41
2019-04-26T07:29:41.528Z,14.59
2019-04-26T07:31:28.733Z,14.83
2019-04-26T07:32:31.838Z,14.98
2019-04-26T07:33:36.019Z,15.04
2019-04-26T07:34:37.626Z,15.2
2019-04-26T07:36:34.312Z,15.4
2019-04-26T07:37:18.334Z,15.43
2019-04-26T07:37:58.781Z,15.41
2019-04-26T07:38:39.977Z,15.38
2019-04-26T07:39:20.903Z,15.4
2019-04-26T07:40:01.431Z,15.52
2019-04-26T07:41:58.609Z,15.6
2019-04-26T07:42:57.076Z,15.59
2019-04-26T07:43:53.431Z,15.64
2019-04-26T07:46:43.972Z,15.67
2019-04-26T07:48:26.072Z,15.78
2019-04-26T07:49:26.319Z,15.81
2019-04-26T07:50:27.965Z,15.86
2019-04-26T07:51:47.013Z,16.04
2019-04-26T07:52:48.419Z,16.03
2019-04-26T07:53:45.938Z,16.14
2019-04-26T07:55:08.764Z,16.23
2019-04-26T07:56:16.512Z,16.14
2019-04-26T07:57:23.876Z,16.26
2019-04-26T07:58:34.557Z,16.13
2019-04-26T07:59:41.327Z,16.18
2019-04-26T08:00:46.763Z,16.14
2019-04-26T08:01:53.175Z,16.04
2019-04-26T08:02:56.505Z,16.04
2019-04-26T08:04:56.576Z,16.18
2019-04-26T08:06:07.372Z,16.29
2019-04-26T08:08:44.429Z,16.48
2019-04-26T08:09:27.801Z,16.51
2019-04-26T08:10:08.131Z,16.5
2019-04-26T08:10:51.892Z,16.54
2019-04-26T08:11:33.301Z,16.57
2019-04-26T08:12:54.078Z,16.63
2019-04-26T08:13:34.513Z,16.59
2019-04-26T08:14:14.887Z,16.59
2019-04-26T08:14:55.364Z,16.65
2019-04-26T08:15:36.735Z,16.62
2019-04-26T08:16:20.765Z,16.65
2019-04-26T08:17:01.198Z,16.54
2019-04-26T08:17:41.810Z,16.54
2019-04-26T08:18:22.190Z,16.59
2019-04-26T08:19:02.690Z,16.63
2019-04-26T08:19:43.934Z,16.63
2019-04-26T08:20:28.132Z,16.51
2019-04-26T08:21:12.661Z,16.51
2019-04-26T08:21:48.889Z,16.57
2019-04-26T08:22:33.723Z,16.52
2019-04-26T08:23:36.964Z,16.52
2019-04-26T08:23:56.409Z,16.62
2019-04-26T08:24:37.319Z,16.55
2019-04-26T08:25:17.778Z,16.55
2019-04-26T08:25:58.158Z,16.52
2019-04-26T08:26:38.683Z,16.62
2019-04-26T08:27:23.495Z,16.59
2019-04-26T08:27:59.554Z,16.54
2019-04-26T08:28:39.849Z,16.67
2019-04-26T08:29:20.453Z,16.62
2019-04-26T08:30:03.277Z,16.62
2019-04-26T08:31:24.276Z,16.55
2019-04-26T08:32:02.152Z,16.62
2019-04-26T08:32:42.647Z,16.62
2019-04-26T08:33:23.161Z,16.75
2019-04-26T08:35:25.970Z,16.7
2019-04-26T08:37:55.410Z,16.81
2019-04-26T08:39:44.431Z,16.72
2019-04-26T08:40:14.416Z,16.75
2019-04-26T08:40:53.914Z,16.62
2019-04-26T08:41:35.156Z,16.5
2019-04-26T08:42:19.910Z,16.57
2019-04-26T08:42:57.295Z,16.48
2019-04-26T08:43:37.258Z,16.51
2019-04-26T08:44:17.812Z,16.55
2019-04-26T08:44:58.273Z,16.63
2019-04-26T08:45:40.426Z,16.67
2019-04-26T08:47:00.224Z,16.59
2019-04-26T08:47:42.254Z,16.57
2019-04-26T08:48:27.462Z,16.59
2019-04-26T08:49:06.113Z,16.62
2019-04-26T08:49:43.272Z,16.57
2019-04-26T08:50:24.277Z,16.51
2019-04-26T08:51:04.714Z,16.54
2019-04-26T08:51:45.534Z,16.63
2019-04-26T08:52:27.088Z,16.59
2019-04-26T08:53:07.308Z,16.55
2019-04-26T08:53:48.097Z,16.51
2019-04-26T08:54:29.614Z,16.54
2019-04-26T08:55:10.298Z,16.54
2019-04-26T08:55:50.679Z,16.66
2019-04-26T08:56:31.376Z,16.75
2019-04-26T08:57:12.631Z,16.77
2019-04-26T08:57:55.154Z,16.77
2019-04-26T08:58:35.612Z,16.7
2019-04-26T08:59:15.354Z,16.75
2019-04-26T08:59:56.293Z,16.75
2019-04-26T09:00:38.612Z,16.66
2019-04-26T09:01:19.290Z,16.62
2019-04-26T09:02:00.305Z,16.51
2019-04-26T09:02:41.125Z,16.62
2019-04-26T09:03:21.660Z,16.67
2019-04-26T09:04:02.954Z,16.82
2019-04-26T09:04:43.773Z,16.8
2019-04-26T09:07:27.582Z,16.72
2019-04-26T09:08:08.307Z,16.7
2019-04-26T09:08:49.690Z,16.75
2019-04-26T09:09:32.279Z,16.73
2019-04-26T09:10:12.133Z,16.82
2019-04-26T09:10:52.139Z,16.78
2019-04-26T09:11:33.890Z,16.92
2019-04-26T09:12:22.429Z,16.96
2019-04-26T09:12:53.475Z,17.02
2019-04-26T09:13:33.906Z,16.9
2019-04-26T09:14:14.420Z,17.06
2019-04-26T09:14:55.162Z,16.96
2019-04-26T09:15:36.350Z,17.1
2019-04-26T09:16:16.207Z,17.12
2019-04-26T09:16:56.578Z,17.1
2019-04-26T09:17:37.001Z,17.09
2019-04-26T09:18:17.522Z,17.14
2019-04-26T09:18:59.894Z,17.15
2019-04-26T09:19:40.383Z,17.18
2019-04-26T09:20:28.459Z,17.3
2019-04-26T09:21:01.193Z,17.32
2019-04-26T09:21:42.463Z,17.35
2019-04-26T09:22:26.020Z,17.39
2019-04-26T09:23:04.809Z,17.42
2019-04-26T09:23:44.336Z,17.51
2019-04-26T09:24:26.566Z,17.39
2019-04-26T09:25:05.443Z,17.53
2019-04-26T09:25:58.525Z,17.54
2019-04-26T09:26:26.830Z,17.6
2019-04-26T09:27:07.107Z,17.63
2019-04-26T09:27:47.491Z,17.74
2019-04-26T09:28:28.077Z,17.77
2019-04-26T09:29:08.774Z,17.74
2019-04-26T09:29:49.606Z,17.86
2019-04-26T09:30:33.897Z,17.96
2019-04-26T09:31:10.121Z,17.94
2019-04-26T09:31:54.445Z,17.96
2019-04-26T09:32:30.925Z,17.99
2019-04-26T09:34:26.567Z,18.31
2019-04-26T09:35:21.508Z,18.25
2019-04-26T09:36:18.162Z,18.26
2019-04-26T09:38:23.633Z,18.31
2019-04-26T09:40:33.372Z,18.34
2019-04-26T09:41:37.339Z,18.17
2019-04-26T09:42:39.681Z,18.17
2019-04-26T09:43:49.107Z,18.2
2019-04-26T09:49:16.634Z,18.14
2019-04-26T09:49:59.625Z,18.13
2019-04-26T09:50:40.335Z,18.09
2019-04-26T09:51:23.210Z,18.02
2019-04-26T09:52:05.477Z,17.94
2019-04-26T09:52:45.942Z,17.83
2019-04-26T09:53:26.315Z,17.84
2019-04-26T09:54:06.873Z,17.87
2019-04-26T09:54:47.200Z,17.94
2019-04-26T09:55:34.991Z,17.87
2019-04-26T09:56:10.583Z,17.91
2019-04-26T09:56:51.762Z,17.83
2019-04-26T09:57:32.059Z,17.77
2019-04-26T09:58:12.448Z,17.8
2019-04-26T09:58:53.254Z,17.79
2019-04-26T09:59:36.222Z,17.77
2019-04-26T10:00:15.385Z,17.87
2019-04-26T10:02:15.261Z,17.92
2019-04-26T10:02:56.491Z,18.1
2019-04-26T10:03:37.664Z,18.1
2019-04-26T10:06:18.136Z,18.17
2019-04-26T10:07:38.901Z,18.09
2019-04-26T10:08:18.916Z,18.11
2019-04-26T10:08:59.322Z,18.07
2019-04-26T10:09:39.789Z,18.17
2019-04-26T10:10:22.895Z,18.29
2019-04-26T10:11:00.558Z,18.29
2019-04-26T10:11:43.497Z,18.26
2019-04-26T10:12:21.367Z,18.35
2019-04-26T10:13:01.815Z,18.35
2019-04-26T10:13:42.224Z,18.38
2019-04-26T10:14:24.643Z,18.42
2019-04-26T10:15:05.121Z,18.34
2019-04-26T10:15:45.427Z,18.34
2019-04-26T10:16:25.831Z,18.38
2019-04-26T10:17:06.491Z,18.36
2019-04-26T10:17:50.124Z,18.34
2019-04-26T10:18:27.417Z,18.35
2019-04-26T10:19:08.029Z,18.29
2019-04-26T10:19:51.104Z,18.36
2019-04-26T10:20:31.496Z,18.32
2019-04-26T10:21:11.878Z,18.38
2019-04-26T10:21:52.269Z,18.26
2019-04-26T10:22:32.710Z,18.29
2019-04-26T10:23:13.145Z,18.28
2019-04-26T10:23:53.667Z,18.34
2019-04-26T10:24:34.684Z,18.36
2019-04-26T10:25:16.794Z,18.39
2019-04-26T10:25:55.514Z,18.49
2019-04-26T10:26:35.943Z,18.54
2019-04-26T10:27:16.376Z,18.65
2019-04-26T10:27:56.985Z,18.46
2019-04-26T10:28:37.361Z,18.53
2019-04-26T11:06:58.016Z,20.56
2019-04-26T11:07:37.948Z,20.58
2019-04-26T11:08:18.322Z,20.63
2019-04-26T11:08:58.741Z,20.66
2019-04-26T11:09:39.234Z,20.61
2019-04-26T11:10:19.570Z,20.64
2019-04-26T11:11:00.008Z,20.72
2019-04-26T11:11:40.367Z,20.78
2019-04-26T11:12:20.807Z,20.79
2019-04-26T11:13:01.239Z,20.93
2019-04-26T11:13:41.688Z,20.96
2019-04-26T11:14:22.567Z,21.08
2019-04-26T11:15:06.356Z,21.16
2019-04-26T11:15:46.779Z,21.26
2019-04-26T11:16:27.189Z,21.22
2019-04-26T11:17:11.365Z,21.24
2019-04-26T11:17:49.863Z,21.33
2019-04-26T11:18:28.641Z,21.34
2019-04-26T11:19:08.794Z,21.37
2019-04-26T11:19:49.185Z,21.36
2019-04-26T11:20:29.685Z,21.28
2019-04-26T11:21:10.049Z,21.4
2019-04-26T11:21:50.959Z,21.28
2019-04-26T11:22:33.312Z,21.31
2019-04-26T11:23:11.699Z,21.28
2019-04-26T11:23:53.351Z,21.31
2019-04-26T11:24:33.787Z,21.24
2019-04-26T11:25:14.179Z,21.21
2019-04-26T11:25:57.832Z,21.31
2019-04-26T11:26:36.205Z,21.24
2019-04-26T11:27:15.396Z,21.11
2019-04-26T11:27:55.937Z,21.06
2019-04-26T11:28:36.322Z,21.15
2019-04-26T11:29:16.765Z,21.19
2019-04-26T11:29:59.262Z,21.26
2019-04-26T11:30:37.505Z,21.31
2019-04-26T11:31:17.961Z,21.27
2019-04-26T11:32:02.539Z,21.36
2019-04-26T11:32:38.858Z,21.3
2019-04-26T11:33:19.334Z,21.3
2019-04-26T11:34:05.276Z,21.38
2019-04-26T11:34:42.746Z,21.12
2019-04-26T11:35:20.511Z,21.12
2019-04-26T11:36:03.273Z,21.13
2019-04-26T11:36:42.826Z,21.15
2019-04-26T11:37:21.697Z,21.16
2019-04-26T11:38:02.135Z,21.27
2019-04-26T11:38:43.508Z,21.26
2019-04-26T11:39:23.968Z,21.3
2019-04-26T11:40:04.319Z,21.37
2019-04-26T11:40:48.691Z,21.36
2019-04-26T11:41:26.031Z,21.28
2019-04-26T11:42:07.899Z,21.38
2019-04-26T11:42:47.279Z,21.33
2019-04-26T11:44:07.655Z,21.33
2019-04-26T11:44:48.055Z,21.53
2019-04-26T11:45:28.499Z,21.61
2019-04-26T11:46:08.942Z,21.56
2019-04-26T11:46:49.270Z,21.7
2019-04-26T11:47:29.700Z,21.77
2019-04-26T11:48:10.266Z,21.75
2019-04-26T11:48:58.734Z,21.81
2019-04-26T11:49:31.151Z,21.98
2019-04-26T11:50:12.337Z,21.93
2019-04-26T11:50:53.570Z,21.93
2019-04-26T11:51:33.345Z,22.06
2019-04-26T11:52:13.744Z,22.09
2019-04-26T11:52:54.163Z,22.12
2019-04-26T11:54:16.883Z,22.09
2019-04-26T11:54:56.232Z,22.23
2019-04-26T11:55:35.883Z,22.2
2019-04-26T11:56:16.296Z,22.11
2019-04-26T11:56:56.889Z,22.04
2019-04-26T11:57:39.896Z,21.98
2019-04-26T11:58:17.752Z,22.08
2019-04-26T11:58:58.321Z,22.08
2019-04-26T11:59:38.372Z,21.93
2019-04-26T12:00:18.823Z,21.9
2019-04-26T12:00:59.218Z,21.96
2019-04-26T12:01:40.363Z,21.9
2019-04-26T12:02:19.972Z,21.93
2019-04-26T12:03:00.346Z,21.99
2019-04-26T12:03:40.766Z,21.99
2019-04-26T12:04:21.179Z,22.05
2019-04-26T12:05:01.593Z,22.06
2019-04-26T12:05:41.990Z,22.02
2019-04-26T12:06:22.396Z,22.05
2019-04-26T12:07:02.767Z,22.2
2019-04-26T12:07:43.191Z,22.26
2019-04-26T12:08:23.641Z,22.2
2019-04-26T12:09:44.411Z,22.31
2019-04-26T12:10:27.006Z,22.35
2019-04-26T12:11:17.546Z,22.38
2019-04-26T12:11:51.084Z,22.31
2019-04-26T12:12:26.138Z,22.38
2019-04-26T12:13:06.497Z,22.44
2019-04-26T12:13:46.904Z,22.44
2019-04-26T12:14:32.895Z,22.39
2019-04-26T12:16:26.978Z,22.39
2019-04-26T12:17:10.468Z,22.42
2019-04-26T12:17:58.278Z,22.51
2019-04-26T12:18:32.884Z,22.48
2019-04-26T12:19:14.184Z,22.57
2019-04-26T12:19:53.612Z,22.59
2019-04-26T12:20:33.894Z,22.64
2019-04-26T12:21:14.934Z,22.56
2019-04-26T12:21:55.263Z,22.61
2019-04-26T12:22:39.282Z,22.59
2019-04-26T12:23:20.471Z,22.48
2019-04-26T12:23:56.536Z,22.49
2019-04-26T12:24:36.958Z,22.63
2019-04-26T12:25:17.340Z,22.66
2019-04-26T12:25:57.748Z,22.74
2019-04-26T12:26:42.944Z,22.84
2019-04-26T12:27:18.535Z,22.91
2019-04-26T12:28:01.796Z,23.09
2019-04-26T12:28:39.867Z,23.11
2019-04-26T12:29:19.684Z,23.12
2019-04-26T12:30:00.089Z,23.29
2019-04-26T12:30:40.476Z,23.34
2019-04-26T12:31:20.871Z,23.37
2019-04-26T12:32:01.477Z,23.41
2019-04-26T12:32:41.897Z,23.57
2019-04-26T12:33:22.290Z,23.59
2019-04-26T12:34:44.134Z,23.84
2019-04-26T12:35:24.531Z,23.89
2019-04-26T12:36:05.082Z,24
2019-04-26T12:36:45.401Z,24.08
2019-04-26T12:37:25.753Z,24.19
2019-04-26T12:38:07.151Z,24.27
2019-04-26T12:38:47.489Z,24.49
2019-04-26T12:39:27.904Z,24.59
2019-04-26T12:40:11.188Z,24.61
2019-04-26T12:40:48.652Z,24.64
2019-04-26T12:41:39.754Z,24.74
2019-04-26T12:42:12.202Z,24.8
2019-04-26T12:42:49.901Z,24.84
2019-04-26T12:43:31.312Z,24.84
2019-04-26T12:44:11.670Z,24.9
2019-04-26T12:44:52.058Z,25.07
2019-04-26T12:45:32.558Z,25.24
2019-04-26T12:46:14.256Z,25.23
2019-04-26T12:46:53.296Z,25.2
2019-04-26T12:47:34.414Z,25.16
2019-04-26T12:48:15.691Z,25.05
2019-04-26T12:50:14.247Z,25.24
2019-04-26T12:51:13.412Z,25.23
2019-04-26T12:52:09.634Z,25.36
2019-04-26T12:53:07.842Z,25.36
2019-04-26T12:54:08.029Z,25.36
2019-04-26T12:56:01.849Z,25.39
2019-04-26T12:56:42.012Z,25.2
2019-04-26T12:57:22.343Z,25.09
2019-04-26T12:58:02.738Z,25.04
2019-04-26T12:58:45.570Z,24.89
2019-04-26T12:59:26.415Z,24.99
2019-04-26T13:00:03.975Z,24.97
2019-04-26T13:00:53.553Z,24.86
2019-04-26T13:01:24.820Z,24.84
2019-04-26T13:02:06.102Z,24.83
2019-04-26T13:02:45.602Z,24.7
2019-04-26T13:03:29.170Z,24.61
2019-04-26T13:04:06.419Z,24.7
2019-04-26T13:04:46.856Z,24.74
2019-04-26T13:05:27.288Z,24.44
2019-04-26T13:06:07.831Z,24.3
2019-04-26T13:06:48.104Z,24.19
2019-04-26T13:07:28.517Z,24.12
2019-04-26T13:08:51.376Z,23.96
2019-04-26T13:09:30.556Z,24.02
2019-04-26T13:10:12.732Z,23.89
2019-04-26T13:10:53.146Z,23.9
2019-04-26T13:11:33.574Z,23.84
2019-04-26T13:12:13.945Z,23.82
2019-04-26T13:12:54.496Z,23.81
2019-04-26T13:13:35.161Z,23.89
2019-04-26T13:14:16.163Z,23.94
2019-04-26T13:14:55.921Z,24.05
2019-04-26T13:15:36.294Z,24.04
2019-04-26T13:16:16.733Z,24.19
2019-04-26T13:16:57.306Z,24.12
2019-04-26T13:17:37.527Z,24.15
2019-04-26T13:18:17.965Z,24.09
2019-04-26T13:19:40.993Z,24.11
2019-04-26T13:20:24.228Z,24.09
2019-04-26T13:21:04.327Z,24.14
2019-04-26T13:21:43.772Z,24.05
2019-04-26T13:22:24.199Z,23.97
2019-04-26T13:23:04.577Z,23.86
2019-04-26T13:23:47.870Z,23.82
2019-04-26T13:24:25.348Z,23.84
2019-04-26T13:25:10.973Z,23.89
2019-04-26T13:25:46.273Z,23.97
2019-04-26T13:26:30.181Z,23.82
2019-04-26T13:27:10.455Z,23.79
2019-04-26T13:27:47.813Z,23.71
2019-04-26T13:28:28.020Z,23.71
2019-04-26T13:30:01.309Z,23.72
2019-04-26T13:30:32.821Z,23.68
2019-04-26T13:31:09.895Z,23.69
2019-04-26T13:31:50.207Z,23.45
2019-04-26T13:32:30.697Z,23.53
2019-04-26T13:33:11.037Z,23.45
2019-04-26T13:33:51.525Z,23.54
2019-04-26T13:34:33.237Z,23.52
2019-04-26T13:35:13.011Z,23.57
2019-04-26T13:36:02.483Z,23.59
2019-04-26T13:36:33.124Z,23.57
2019-04-26T13:37:13.586Z,23.68
2019-04-26T13:37:53.979Z,23.64
2019-04-26T13:38:34.364Z,23.72
2019-04-26T13:39:17.513Z,23.75
2019-04-26T13:39:56.700Z,23.86
2019-04-26T13:40:36.768Z,23.82
2019-04-26T13:41:17.311Z,23.77
2019-04-26T13:42:03.113Z,23.79
2019-04-26T13:42:41.041Z,23.89
2019-04-26T13:43:22.590Z,23.86
2019-04-26T13:44:42.434Z,24.23
2019-04-26T13:45:22.634Z,24.41
2019-04-26T13:46:03.065Z,24.55
2019-04-26T13:46:43.490Z,24.71
2019-04-26T13:47:24.161Z,24.63
2019-04-26T13:48:04.600Z,24.68
2019-04-26T13:48:46.530Z,24.75
2019-04-26T13:49:26.907Z,24.86
2019-04-26T13:50:09.013Z,24.9
2019-04-26T13:50:49.450Z,24.86
2019-04-26T13:51:31.654Z,24.97
2019-04-26T13:52:12.146Z,25.07
2019-04-26T13:52:54.416Z,24.99
2019-04-26T13:53:34.812Z,24.93
2019-04-26T13:54:20.910Z,24.87
2019-04-26T13:54:56.911Z,24.67
2019-04-26T13:55:38.383Z,24.71
2019-04-26T13:57:56.405Z,24.79
2019-04-26T13:58:39.306Z,24.8
2019-04-26T13:59:19.696Z,24.83
2019-04-26T14:00:02.446Z,24.75
2019-04-26T14:00:43.443Z,24.53
2019-04-26T14:01:20.891Z,24.52
2019-04-26T14:02:10.769Z,24.51
2019-04-26T14:02:41.743Z,24.39
2019-04-26T14:03:22.115Z,24.44
2019-04-26T14:04:06.695Z,24.41
2019-04-26T14:05:23.357Z,24.44
2019-04-26T14:06:03.730Z,24.37
2019-04-26T14:06:44.128Z,24.46
2019-04-26T14:07:25.942Z,24.41
2019-04-26T14:08:04.974Z,24.46
2019-04-26T14:08:45.366Z,24.49
2019-04-26T14:09:27.565Z,24.6
2019-04-26T14:10:08.842Z,24.49
2019-04-26T14:10:49.711Z,24.56
2019-04-26T14:11:29.633Z,24.59
2019-04-26T14:12:18.118Z,24.67
2019-04-26T14:12:51.331Z,24.63
2019-04-26T14:13:30.996Z,24.79
2019-04-26T14:14:11.264Z,24.87
2019-04-26T14:14:51.723Z,24.86
2019-04-26T14:15:32.044Z,24.87
2019-04-26T14:16:12.467Z,24.92
2019-04-26T14:16:55.710Z,24.93
2019-04-26T14:17:35.501Z,25.05
2019-04-26T14:18:15.916Z,25.07
2019-04-26T14:18:58.381Z,25.01
2019-04-26T14:19:38.736Z,24.98
2019-04-26T14:20:23.243Z,24.74
2019-04-26T14:21:01.022Z,24.67
2019-04-26T14:21:43.249Z,24.63
2019-04-26T14:22:23.659Z,24.71
2019-04-26T14:23:04.014Z,24.7
2019-04-26T14:23:45.227Z,24.59
2019-04-26T14:24:25.183Z,24.6
2019-04-26T14:25:05.410Z,24.45
2019-04-26T14:25:46.031Z,24.37
2019-04-26T14:26:27.030Z,24.3
2019-04-26T14:27:10.350Z,24.33
2019-04-26T14:27:49.765Z,24.36
2019-04-26T14:30:02.424Z,24.48
2019-04-26T14:30:43.251Z,24.67
2019-04-26T14:31:23.136Z,24.63
2019-04-26T14:32:03.533Z,24.67
2019-04-26T14:32:43.978Z,24.79
2019-04-26T14:33:26.976Z,24.84
2019-04-26T14:34:05.305Z,24.89
2019-04-26T14:34:45.351Z,24.87
2019-04-26T14:35:26.049Z,24.92
2019-04-26T14:36:17.019Z,25.05
2019-04-26T14:36:49.042Z,25.17
2019-04-26T14:37:30.728Z,25.23
2019-04-26T14:38:11.728Z,25.24
2019-04-26T14:39:05.165Z,25.39
2019-04-26T14:39:49.962Z,25.38
2019-04-26T14:40:19.559Z,25.35
2019-04-26T14:41:03.931Z,25.36
2019-04-26T14:41:41.132Z,25.41
2019-04-26T14:42:33.375Z,25.45
2019-04-26T14:43:06.738Z,25.26
2019-04-26T14:43:44.900Z,25.24
2019-04-26T14:44:27.090Z,25.07
2019-04-26T14:45:07.094Z,24.92
2019-04-26T14:45:55.585Z,24.93
2019-04-26T14:46:27.292Z,24.93
2019-04-26T14:47:14.067Z,25.07
2019-04-26T14:47:48.812Z,25.16
2019-04-26T14:48:35.613Z,25.23